Time;durP1;ratioP1;P1;durP2;ratioP2;P2;SDS_P1;SDS_P2;PMS_P1;PMS_P2;Temp;Humidity;BMP_temperature;BMP_pressure;BME280_temperature;BME280_humidity;BME280_pressure;Samples;Min_cycle;Max_cycle;Signal;HPM_P1;HPM_P2
2022/10/20 00:01:19;;;;;;;25.95;21.73;;;6.30;99.90;;;;;;4977351;28;20045;-74
2022/10/20 00:03:47;;;;;;;30.10;24.25;;;6.30;99.90;;;;;;4993045;28;20535;-75
2022/10/20 00:06:18;;;;;;;31.63;25.20;;;6.30;99.90;;;;;;4998347;28;20542;-75
2022/10/20 00:08:45;;;;;;;34.03;24.50;;;6.30;99.90;;;;;;4976667;28;20060;-74
2022/10/20 00:11:14;;;;;;;27.50;23.50;;;6.30;99.90;;;;;;4989422;28;20491;-74
2022/10/20 00:13:43;;;;;;;30.50;25.45;;;6.30;99.90;;;;;;4998170;28;20030;-74
2022/10/20 00:16:11;;;;;;;30.05;24.65;;;6.20;99.90;;;;;;4994618;28;20042;-74
2022/10/20 00:18:38;;;;;;;34.15;26.35;;;6.20;99.90;;;;;;4996985;28;20053;-75
2022/10/20 00:21:11;;;;;;;37.00;25.88;;;6.30;99.90;;;;;;4978791;28;20386;-74
2022/10/20 00:23:38;;;;;;;28.80;24.70;;;6.20;99.90;;;;;;4982892;28;20048;-74
2022/10/20 00:26:17;;;;;;;29.05;23.60;;;6.20;99.90;;;;;;4984675;28;20100;-74
2022/10/20 00:28:44;;;;;;;34.50;25.50;;;6.20;99.90;;;;;;4976299;28;20049;-74
2022/10/20 00:31:11;;;;;;;33.40;26.63;;;6.20;99.90;;;;;;5014561;28;20518;-73
2022/10/20 00:33:39;;;;;;;35.95;26.10;;;6.20;99.90;;;;;;4982445;28;20076;-74
2022/10/20 00:36:07;;;;;;;30.15;25.70;;;6.20;99.90;;;;;;4996953;28;20030;-74
2022/10/20 00:38:35;;;;;;;31.20;26.67;;;6.10;99.90;;;;;;4998326;28;20048;-75
2022/10/20 00:41:02;;;;;;;33.35;26.02;;;6.20;99.90;;;;;;4976590;28;20342;-74
2022/10/20 00:43:42;;;;;;;36.13;27.90;;;6.10;99.90;;;;;;4986061;28;20046;-72
2022/10/20 00:46:11;;;;;;;35.97;26.58;;;6.10;99.90;;;;;;4961669;28;20038;-73
2022/10/20 00:48:39;;;;;;;37.33;28.23;;;6.10;99.90;;;;;;5002643;28;20038;-74
2022/10/20 00:51:11;;;;;;;37.33;29.08;;;6.10;99.90;;;;;;4996831;28;20828;-74
2022/10/20 00:53:38;;;;;;;43.60;28.88;;;6.10;99.90;;;;;;4975210;28;20042;-74
2022/10/20 00:56:05;;;;;;;33.13;27.15;;;6.10;99.90;;;;;;4997747;28;20045;-73
2022/10/20 00:58:34;;;;;;;35.38;28.92;;;6.10;99.90;;;;;;4998751;28;20061;-73
2022/10/20 01:01:01;;;;;;;32.88;25.90;;;6.10;99.90;;;;;;4996241;28;20442;-74
2022/10/20 01:03:45;;;;;;;37.30;29.60;;;6.10;99.90;;;;;;5003817;28;20040;-74
2022/10/20 01:06:14;;;;;;;36.50;27.85;;;6.10;99.90;;;;;;4980755;28;20042;-73
2022/10/20 01:08:45;;;;;;;33.33;27.25;;;6.10;99.90;;;;;;4995382;28;20049;-74
2022/10/20 01:11:28;;;;;;;41.28;26.85;;;6.10;99.90;;;;;;4987720;28;20061;-73
2022/10/20 01:14:01;;;;;;;33.63;27.58;;;6.10;99.90;;;;;;4975722;28;20140;-73
2022/10/20 01:16:46;;;;;;;32.70;26.23;;;6.10;99.90;;;;;;4979643;28;20078;-74
2022/10/20 01:19:50;;;;;;;36.40;28.55;;;6.10;99.90;;;;;;4990036;28;20042;-72
2022/10/20 01:23:05;;;;;;;38.13;27.58;;;6.00;99.90;;;;;;4992213;28;20037;-74
2022/10/20 01:25:48;;;;;;;38.08;24.73;;;6.00;99.90;;;;;;4976461;28;20633;-74
2022/10/20 01:28:29;;;;;;;35.65;26.17;;;6.00;99.90;;;;;;4990999;28;20057;-74
2022/10/20 01:31:00;;;;;;;36.05;27.05;;;6.00;99.90;;;;;;5001024;28;20286;-74
2022/10/20 01:33:46;;;;;;;42.58;28.77;;;6.00;99.90;;;;;;4981914;28;20038;-73
2022/10/20 01:36:23;;;;;;;29.95;25.58;;;6.00;99.90;;;;;;4979188;28;20198;-73
2022/10/20 01:38:53;;;;;;;30.92;22.52;;;6.00;99.90;;;;;;4976639;28;20355;-73
2022/10/20 01:41:31;;;;;;;36.22;27.15;;;6.00;99.90;;;;;;5004579;28;20046;-74
2022/10/20 01:44:03;;;;;;;36.17;26.42;;;6.00;99.90;;;;;;4985811;28;20281;-74
2022/10/20 01:46:31;;;;;;;31.27;23.08;;;6.00;99.90;;;;;;4996298;28;20049;-74
2022/10/20 01:49:01;;;;;;;34.70;27.67;;;6.00;99.90;;;;;;4979323;28;20038;-74
2022/10/20 01:51:27;;;;;;;33.67;26.83;;;6.00;99.90;;;;;;4981683;28;20038;-73
2022/10/20 01:53:54;;;;;;;35.60;27.02;;;6.00;99.90;;;;;;5000561;28;20500;-73
2022/10/20 01:56:50;;;;;;;35.28;27.15;;;5.90;99.90;;;;;;5003405;28;20036;-73
2022/10/20 01:59:24;;;;;;;27.35;21.38;;;6.00;99.90;;;;;;4985332;28;20042;-74
2022/10/20 02:02:22;;;;;;;35.63;26.05;;;6.00;99.90;;;;;;4976883;28;20060;-74
2022/10/20 02:05:08;;;;;;;37.00;24.95;;;6.00;99.90;;;;;;4975865;28;21062;-73
2022/10/20 02:07:34;;;;;;;;;;;6.00;99.90;;;;;;4963362;28;20041;-73
2022/10/20 02:10:19;;;;;;;31.80;22.80;;;6.00;99.90;;;;;;4994985;28;20449;-73
2022/10/20 02:12:52;;;;;;;32.75;22.15;;;5.90;99.90;;;;;;4992834;28;20078;-73
2022/10/20 02:15:23;;;;;;;31.63;24.50;;;5.90;99.90;;;;;;4991254;28;20157;-74
2022/10/20 02:17:57;;;;;;;31.52;22.77;;;6.00;99.90;;;;;;4977199;28;20057;-74
2022/10/20 02:20:25;;;;;;;37.60;24.33;;;5.90;99.90;;;;;;4974873;28;20088;-73
2022/10/20 02:22:52;;;;;;;32.92;25.88;;;6.00;99.90;;;;;;4973085;28;20240;-74
2022/10/20 02:25:20;;;;;;;35.75;26.02;;;5.90;99.90;;;;;;4980071;28;20053;-74
2022/10/20 02:27:51;;;;;;;35.22;25.60;;;5.90;99.90;;;;;;4975938;28;20351;-74
2022/10/20 02:30:20;;;;;;;31.50;23.75;;;5.90;99.90;;;;;;4978410;28;20107;-74
2022/10/20 02:32:51;;;;;;;35.03;25.65;;;5.90;99.90;;;;;;4980413;28;20059;-73
2022/10/20 02:35:24;;;;;;;33.63;25.45;;;6.00;99.90;;;;;;5044958;23;20399;-77
2022/10/20 02:37:51;;;;;;;32.30;26.45;;;5.90;99.90;;;;;;5026448;28;20038;-77
2022/10/20 02:40:18;;;;;;;31.77;25.65;;;5.90;99.90;;;;;;5003535;28;20045;-78
2022/10/20 02:42:45;;;;;;;36.72;26.98;;;5.90;99.90;;;;;;4995923;28;20144;-77
2022/10/20 02:45:12;;;;;;;35.90;25.13;;;5.90;99.90;;;;;;5008737;28;20045;-77
2022/10/20 02:47:39;;;;;;;39.42;28.48;;;5.90;99.90;;;;;;5005036;28;20573;-78
2022/10/20 02:50:07;;;;;;;36.92;25.30;;;5.90;99.90;;;;;;4991506;28;20052;-77
2022/10/20 02:52:35;;;;;;;31.17;25.17;;;5.90;99.90;;;;;;4990670;28;20046;-78
2022/10/20 02:55:03;;;;;;;38.78;27.35;;;5.80;99.90;;;;;;4986014;28;20046;-77
2022/10/20 02:57:30;;;;;;;32.47;22.88;;;5.80;99.90;;;;;;5005317;28;20042;-77
2022/10/20 02:59:56;;;;;;;32.30;26.20;;;5.80;99.90;;;;;;4985202;28;20041;-77
2022/10/20 03:02:23;;;;;;;30.77;26.02;;;5.90;99.90;;;;;;4982844;28;20042;-76
2022/10/20 03:04:50;;;;;;;34.47;26.38;;;5.90;99.90;;;;;;4987752;28;20049;-77
2022/10/20 03:07:18;;;;;;;32.80;26.38;;;5.80;99.90;;;;;;4989092;28;20159;-77
2022/10/20 03:09:44;;;;;;;33.53;25.70;;;5.80;99.90;;;;;;4991217;28;20041;-76
2022/10/20 03:12:11;;;;;;;35.33;24.95;;;5.90;99.90;;;;;;4996213;28;20125;-76
2022/10/20 03:14:38;;;;;;;35.55;26.42;;;5.90;99.90;;;;;;5002609;28;20042;-79
2022/10/20 03:17:05;;;;;;;36.00;25.90;;;5.90;99.90;;;;;;4990989;28;20508;-77
2022/10/20 03:19:32;;;;;;;39.40;26.42;;;5.90;99.90;;;;;;4972366;28;20049;-77
2022/10/20 03:21:59;;;;;;;31.48;25.70;;;5.90;99.90;;;;;;4996305;28;20038;-78
2022/10/20 03:24:25;;;;;;;30.65;24.13;;;6.00;99.90;;;;;;5004454;28;20235;-78
2022/10/20 03:26:52;;;;;;;31.60;26.02;;;5.90;99.90;;;;;;5006108;28;20045;-77
2022/10/20 03:29:19;;;;;;;33.10;25.73;;;5.90;99.90;;;;;;4993574;28;20049;-77
2022/10/20 03:31:45;;;;;;;30.27;25.58;;;5.90;99.90;;;;;;4994834;28;20038;-79
2022/10/20 03:34:12;;;;;;;31.52;24.85;;;5.90;99.90;;;;;;4964235;28;20669;-77
2022/10/20 03:36:39;;;;;;;33.95;25.45;;;5.90;99.90;;;;;;4996960;28;20037;-80
2022/10/20 03:39:06;;;;;;;32.33;25.38;;;5.90;99.90;;;;;;4996184;28;20238;-77
2022/10/20 03:41:33;;;;;;;29.60;23.33;;;5.90;99.90;;;;;;5015567;28;20474;-77
2022/10/20 03:43:59;;;;;;;38.45;28.23;;;5.90;99.90;;;;;;5011363;28;20049;-77
2022/10/20 03:46:29;;;;;;;35.42;27.52;;;5.80;99.90;;;;;;5000017;28;20048;-77
2022/10/20 03:48:55;;;;;;;31.90;25.80;;;5.80;99.90;;;;;;4995380;28;20046;-78
2022/10/20 03:51:22;;;;;;;38.67;27.83;;;5.80;99.90;;;;;;5011510;28;20136;-77
2022/10/20 03:53:49;;;;;;;35.97;25.77;;;5.80;99.90;;;;;;5009597;28;20099;-78
2022/10/20 03:56:17;;;;;;;33.17;25.50;;;5.80;99.90;;;;;;5018855;28;20034;-78
2022/10/20 03:58:45;;;;;;;40.25;26.40;;;5.80;99.90;;;;;;4992999;28;20053;-78
2022/10/20 04:01:16;;;;;;;39.20;30.08;;;5.80;99.90;;;;;;4986751;28;20814;-80
2022/10/20 04:03:46;;;;;;;37.60;26.15;;;5.80;99.90;;;;;;5000906;28;20060;-77
2022/10/20 04:06:13;;;;;;;40.92;28.73;;;5.70;99.90;;;;;;5016821;28;20292;-77
2022/10/20 04:08:40;;;;;;;38.13;27.17;;;5.70;99.90;;;;;;5025230;28;20133;-77
2022/10/20 04:11:07;;;;;;;36.45;27.13;;;5.70;99.90;;;;;;5010372;28;20042;-77
2022/10/20 04:13:34;;;;;;;31.65;22.98;;;5.70;99.90;;;;;;5012942;28;20046;-78
2022/10/20 04:16:04;;;;;;;38.30;26.42;;;5.70;99.90;;;;;;4987708;28;20152;-77
2022/10/20 04:18:31;;;;;;;35.30;26.50;;;5.70;99.90;;;;;;4990116;28;20056;-78
2022/10/20 04:20:58;;;;;;;32.47;25.27;;;5.70;99.90;;;;;;4997450;28;20137;-77
2022/10/20 04:23:25;;;;;;;33.67;25.67;;;5.70;99.90;;;;;;5012976;28;20048;-78
2022/10/20 04:25:51;;;;;;;35.67;26.75;;;5.70;99.90;;;;;;5004680;28;20376;-80
2022/10/20 04:28:19;;;;;;;35.38;25.95;;;5.60;99.90;;;;;;4975944;28;20761;-78
2022/10/20 04:30:47;;;;;;;37.75;27.23;;;5.60;99.90;;;;;;4995712;28;20680;-77
2022/10/20 04:33:15;;;;;;;37.75;26.13;;;5.60;99.90;;;;;;5021051;28;20045;-77
2022/10/20 04:35:42;;;;;;;34.28;24.33;;;5.60;99.90;;;;;;5025907;28;20044;-78
2022/10/20 04:38:09;;;;;;;35.65;24.48;;;5.60;99.90;;;;;;5024508;28;20037;-77
2022/10/20 04:40:36;;;;;;;35.42;24.58;;;5.70;99.90;;;;;;5032239;28;20095;-78
2022/10/20 04:43:02;;;;;;;35.15;25.58;;;5.70;99.90;;;;;;5027942;28;20595;-78
2022/10/20 04:45:29;;;;;;;39.08;26.00;;;5.70;99.90;;;;;;5028240;28;20041;-80
2022/10/20 04:47:56;;;;;;;37.65;25.80;;;5.70;99.90;;;;;;5009818;28;20049;-80
2022/10/20 04:50:22;;;;;;;35.47;27.80;;;5.70;99.90;;;;;;5029097;28;20673;-77
2022/10/20 04:53:05;;;;;;;36.42;26.95;;;5.70;99.90;;;;;;5018246;28;20053;-78
2022/10/20 04:55:33;;;;;;;36.28;28.67;;;5.70;99.90;;;;;;5027903;28;20091;-79
2022/10/20 04:58:00;;;;;;;31.63;25.20;;;5.70;99.90;;;;;;5010395;28;20041;-77
2022/10/20 05:00:27;;;;;;;33.60;26.27;;;5.70;99.90;;;;;;5009708;28;20041;-79
2022/10/20 05:02:54;;;;;;;36.25;25.30;;;5.70;99.90;;;;;;5025524;28;20134;-78
2022/10/20 05:05:21;;;;;;;37.00;26.48;;;5.70;99.90;;;;;;5022141;28;20052;-78
2022/10/20 05:07:48;;;;;;;33.72;25.05;;;5.80;99.90;;;;;;5026398;28;20061;-78
2022/10/20 05:10:15;;;;;;;35.20;26.33;;;5.80;99.90;;;;;;5031812;28;20116;-78
2022/10/20 05:12:41;;;;;;;34.90;26.35;;;5.80;99.90;;;;;;5027068;28;20045;-77
2022/10/20 05:15:08;;;;;;;31.90;23.98;;;5.80;99.90;;;;;;5026843;28;20049;-78
2022/10/20 05:17:35;;;;;;;36.35;24.27;;;5.80;99.90;;;;;;5031991;28;20120;-78
2022/10/20 05:20:03;;;;;;;30.98;24.48;;;5.80;99.90;;;;;;5011507;28;20084;-78
2022/10/20 05:22:30;;;;;;;31.77;25.45;;;5.80;99.90;;;;;;5025294;28;20051;-81
2022/10/20 05:24:56;;;;;;;34.90;26.48;;;5.80;99.90;;;;;;5016751;28;20495;-79
2022/10/20 05:27:39;;;;;;;28.13;22.10;;;5.80;99.90;;;;;;5022299;28;20069;-80
2022/10/20 05:30:06;;;;;;;32.65;24.90;;;5.80;99.90;;;;;;5027225;28;20103;-78
2022/10/20 05:32:33;;;;;;;33.00;22.75;;;5.70;99.90;;;;;;5008957;28;20033;-79
2022/10/20 05:35:00;;;;;;;36.35;24.55;;;5.70;99.90;;;;;;5029016;28;20057;-78
2022/10/20 05:37:27;;;;;;;37.25;25.70;;;5.60;99.90;;;;;;5026661;28;20115;-78
2022/10/20 05:39:54;;;;;;;38.15;25.15;;;5.70;99.90;;;;;;5026122;28;20037;-80
2022/10/20 05:42:21;;;;;;;32.63;24.38;;;5.70;99.90;;;;;;5025248;28;20045;-79
2022/10/20 05:44:48;;;;;;;43.20;26.88;;;5.70;99.90;;;;;;5012187;28;20557;-79
2022/10/20 05:47:14;;;;;;;35.05;25.38;;;5.70;99.90;;;;;;5007958;28;20042;-77
2022/10/20 05:49:41;;;;;;;29.73;22.90;;;5.70;99.90;;;;;;5026134;28;20057;-78
2022/10/20 05:52:08;;;;;;;30.60;24.65;;;5.70;99.90;;;;;;5024631;28;20530;-80
2022/10/20 05:54:34;;;;;;;29.98;22.80;;;5.70;99.90;;;;;;5026568;28;20283;-77
2022/10/20 05:57:01;;;;;;;33.33;25.60;;;5.70;99.90;;;;;;5030172;28;20483;-79
2022/10/20 05:59:31;;;;;;;31.70;25.95;;;5.60;99.90;;;;;;4996904;28;20041;-78
2022/10/20 06:01:58;;;;;;;35.40;26.60;;;5.60;99.90;;;;;;5034153;28;20048;-77
2022/10/20 06:04:26;;;;;;;37.70;26.17;;;5.60;99.90;;;;;;5020821;28;20046;-80
2022/10/20 06:06:57;;;;;;;40.83;25.67;;;5.60;99.90;;;;;;5025148;28;20045;-78
2022/10/20 06:09:23;;;;;;;33.53;25.02;;;5.60;99.90;;;;;;5029552;28;20491;-78
2022/10/20 06:11:51;;;;;;;36.58;25.73;;;5.60;99.90;;;;;;5028761;22;21825;-69
2022/10/20 06:14:21;;;;;;;35.50;27.10;;;5.60;99.90;;;;;;5001425;28;20124;-72
2022/10/20 06:16:52;;;;;;;30.58;23.85;;;5.70;99.90;;;;;;5001175;28;20394;-69
2022/10/20 06:19:19;;;;;;;29.75;22.05;;;5.70;99.90;;;;;;5000677;28;20150;-69
2022/10/20 06:21:45;;;;;;;31.15;26.90;;;5.80;99.90;;;;;;4999632;28;20041;-69
2022/10/20 06:24:15;;;;;;;32.03;26.85;;;5.90;99.90;;;;;;5005535;28;20997;-69
2022/10/20 06:26:43;;;;;;;36.78;28.15;;;5.90;99.90;;;;;;5001169;28;20045;-71
2022/10/20 06:29:12;;;;;;;35.88;27.58;;;5.80;99.90;;;;;;4998982;28;20052;-70
2022/10/20 06:31:45;;;;;;;33.67;26.65;;;5.80;99.90;;;;;;5000769;28;20775;-70
2022/10/20 06:34:23;;;;;;;32.30;26.10;;;5.80;99.90;;;;;;5002236;28;20041;-72
2022/10/20 06:36:50;;;;;;;31.35;25.83;;;5.80;99.90;;;;;;4999850;28;20938;-70
2022/10/20 06:39:20;;;;;;;32.92;25.88;;;5.90;99.90;;;;;;5003068;28;20545;-70
2022/10/20 06:41:49;;;;;;;34.33;24.77;;;5.90;99.90;;;;;;4998265;28;20053;-71
2022/10/20 06:44:21;;;;;;;29.00;24.85;;;5.90;99.90;;;;;;4995937;28;20136;-71
2022/10/20 06:46:51;;;;;;;32.92;26.63;;;5.90;99.90;;;;;;4999008;28;20108;-71
2022/10/20 06:49:18;;;;;;;38.33;26.45;;;5.90;99.90;;;;;;5001032;28;20103;-70
2022/10/20 06:51:45;;;;;;;33.88;26.45;;;5.90;99.90;;;;;;4999546;28;20132;-69
2022/10/20 06:54:12;;;;;;;31.98;25.50;;;5.90;99.90;;;;;;5001888;28;20091;-69
2022/10/20 06:56:40;;;;;;;34.83;25.17;;;5.90;99.90;;;;;;4998650;28;20111;-69
2022/10/20 06:59:07;;;;;;;34.22;26.08;;;6.00;99.90;;;;;;4983044;28;20137;-71
2022/10/20 07:01:35;;;;;;;27.70;23.13;;;6.00;99.90;;;;;;4999710;28;20152;-72
2022/10/20 07:04:05;;;;;;;29.25;24.38;;;6.00;99.90;;;;;;5002349;28;20054;-71
2022/10/20 07:06:35;;;;;;;31.60;24.55;;;6.10;99.90;;;;;;4993026;28;20506;-72
2022/10/20 07:09:04;;;;;;;28.63;25.55;;;6.20;99.90;;;;;;5003184;28;20398;-70
2022/10/20 07:11:32;;;;;;;33.50;26.23;;;6.30;99.90;;;;;;4999508;28;20509;-68
2022/10/20 07:14:01;;;;;;;30.30;26.42;;;6.30;99.90;;;;;;4998438;28;20106;-71
2022/10/20 07:16:30;;;;;;;28.98;25.92;;;6.40;99.90;;;;;;4997983;28;20041;-70
2022/10/20 07:18:57;;;;;;;28.80;26.05;;;6.40;99.90;;;;;;4996605;28;20144;-70
2022/10/20 07:21:30;;;;;;;29.73;26.73;;;6.60;99.90;;;;;;4999588;28;20162;-72
2022/10/20 07:24:04;;;;;;;26.50;24.00;;;6.60;99.90;;;;;;4999726;28;20453;-69
2022/10/20 07:26:34;;;;;;;28.80;25.85;;;6.60;99.90;;;;;;4978502;28;20053;-70
2022/10/20 07:29:02;;;;;;;30.23;26.80;;;6.70;99.90;;;;;;4998854;28;20498;-70
2022/10/20 07:31:41;;;;;;;29.42;26.17;;;6.70;99.90;;;;;;4998122;28;20132;-71
2022/10/20 07:34:09;;;;;;;29.92;26.75;;;6.80;99.90;;;;;;4997003;28;20214;-71
2022/10/20 07:36:52;;;;;;;27.55;24.90;;;6.90;99.90;;;;;;5000151;28;20052;-70
2022/10/20 07:39:19;;;;;;;29.75;26.73;;;6.90;99.90;;;;;;5001348;28;20713;-70
2022/10/20 07:41:46;;;;;;;27.20;24.48;;;7.00;99.90;;;;;;4980149;28;20520;-70
2022/10/20 07:44:14;;;;;;;29.55;26.55;;;7.10;99.90;;;;;;5000193;28;20042;-70
2022/10/20 07:46:42;;;;;;;29.27;26.48;;;7.10;99.90;;;;;;4999517;28;20045;-69
2022/10/20 07:49:09;;;;;;;31.08;28.20;;;7.10;99.90;;;;;;4999090;28;20045;-70
2022/10/20 07:51:56;;;;;;;28.38;25.67;;;7.20;99.90;;;;;;4999942;28;20486;-71
2022/10/20 07:54:23;;;;;;;28.88;25.98;;;7.30;99.90;;;;;;4998695;28;20460;-71
2022/10/20 07:56:50;;;;;;;32.25;27.15;;;7.40;99.90;;;;;;4998944;28;20045;-70
2022/10/20 07:59:18;;;;;;;31.13;28.33;;;7.50;99.90;;;;;;5001024;28;20049;-71
2022/10/20 08:01:45;;;;;;;31.92;28.88;;;7.50;99.90;;;;;;5000496;28;20092;-71
2022/10/20 08:04:11;;;;;;;29.75;27.00;;;7.50;99.90;;;;;;5000385;28;20073;-69
2022/10/20 08:06:38;;;;;;;30.55;26.80;;;7.60;99.90;;;;;;5010378;28;20501;-70
2022/10/20 08:09:06;;;;;;;29.77;26.38;;;7.60;99.90;;;;;;5027109;28;20049;-69
2022/10/20 08:11:33;;;;;;;30.48;27.20;;;7.60;99.90;;;;;;5022483;28;20373;-69
2022/10/20 08:14:00;;;;;;;31.73;28.40;;;7.70;99.90;;;;;;5024802;28;20050;-69
2022/10/20 08:16:27;;;;;;;29.35;23.60;;;7.80;99.90;;;;;;5023638;28;21082;-70
2022/10/20 08:18:55;;;;;;;29.48;26.70;;;7.90;99.90;;;;;;5022901;28;20104;-70
2022/10/20 08:21:37;;;;;;;27.75;25.13;;;8.00;99.90;;;;;;5017325;28;20052;-69
2022/10/20 08:24:04;;;;;;;27.52;25.05;;;8.10;99.90;;;;;;5016331;28;20483;-72
2022/10/20 08:26:31;;;;;;;28.02;25.15;;;8.10;99.90;;;;;;5002929;28;20073;-69
2022/10/20 08:28:58;;;;;;;29.88;26.98;;;8.10;99.90;;;;;;5006053;28;20045;-72
2022/10/20 08:31:25;;;;;;;31.33;27.67;;;8.10;99.90;;;;;;5005669;28;20033;-70
2022/10/20 08:33:51;;;;;;;29.80;27.05;;;8.20;99.90;;;;;;5002382;28;20049;-71
2022/10/20 08:36:20;;;;;;;29.90;27.02;;;8.20;99.90;;;;;;5028132;23;20060;-74
2022/10/20 08:38:47;;;;;;;31.02;27.63;;;8.30;99.90;;;;;;5042531;28;20794;-73
2022/10/20 08:41:18;;;;;;;29.67;26.73;;;8.30;99.90;;;;;;5035651;28;20314;-72
2022/10/20 08:43:48;;;;;;;30.65;27.65;;;8.40;99.90;;;;;;5036595;28;20075;-71
2022/10/20 08:46:17;;;;;;;31.60;28.38;;;8.40;99.90;;;;;;5034100;28;20106;-73
2022/10/20 08:48:49;;;;;;;28.65;25.95;;;8.50;99.90;;;;;;5036097;28;20071;-73
2022/10/20 08:51:22;;;;;;;33.03;29.52;;;8.50;99.90;;;;;;5035894;28;20095;-72
2022/10/20 08:53:52;;;;;;;30.67;27.63;;;8.60;99.90;;;;;;5036517;28;20045;-71
2022/10/20 08:56:23;;;;;;;31.10;28.27;;;8.70;99.90;;;;;;5035132;28;21769;-72
2022/10/20 08:58:51;;;;;;;32.13;29.08;;;8.80;99.90;;;;;;5036269;28;20049;-72
2022/10/20 09:01:25;;;;;;;32.35;29.27;;;8.90;99.90;;;;;;5036315;28;20041;-70
2022/10/20 09:03:57;;;;;;;31.70;28.58;;;9.00;99.90;;;;;;5037297;28;20160;-72
2022/10/20 09:06:24;;;;;;;30.60;27.92;;;9.30;99.90;;;;;;5034412;28;20153;-72
2022/10/20 09:08:53;;;;;;;32.65;29.65;;;9.40;99.90;;;;;;5035808;28;20116;-73
2022/10/20 09:11:24;;;;;;;32.45;29.65;;;9.60;99.90;;;;;;5035044;28;20469;-74
2022/10/20 09:13:52;;;;;;;32.33;29.40;;;9.60;99.90;;;;;;5036153;28;20051;-74
2022/10/20 09:16:37;;;;;;;32.15;29.42;;;9.60;99.90;;;;;;5036784;28;20698;-74
2022/10/20 09:19:17;;;;;;;32.15;29.35;;;9.80;99.90;;;;;;5038711;28;20631;-74
2022/10/20 09:21:46;;;;;;;31.73;29.00;;;10.00;99.90;;;;;;5035080;28;20048;-75
2022/10/20 09:24:13;;;;;;;33.75;30.65;;;10.00;99.90;;;;;;5035628;28;20148;-74
2022/10/20 09:26:44;;;;;;;31.13;28.45;;;10.10;99.90;;;;;;5038564;28;20060;-71
2022/10/20 09:29:36;;;;;;;33.00;30.13;;;10.40;99.90;;;;;;5038101;28;20087;-72
2022/10/20 09:32:17;;;;;;;33.28;30.15;;;10.50;99.90;;;;;;5038743;28;20057;-74
2022/10/20 09:35:27;;;;;;;31.70;29.15;;;10.60;99.90;;;;;;5046497;28;20037;-74
2022/10/20 09:38:11;;;;;;;31.40;28.75;;;10.70;99.90;;;;;;5051725;28;20041;-73
2022/10/20 09:40:53;;;;;;;29.83;27.58;;;10.80;99.90;;;;;;5046519;28;20125;-72
2022/10/20 09:43:20;;;;;;;32.00;29.50;;;11.00;99.90;;;;;;5049119;28;20048;-74
2022/10/20 09:45:54;;;;;;;31.33;28.15;;;11.20;99.90;;;;;;5037971;28;20060;-72
2022/10/20 09:48:28;;;;;;;29.65;27.10;;;11.20;99.90;;;;;;5036822;28;20056;-71
2022/10/20 09:50:57;;;;;;;30.35;27.90;;;11.10;99.90;;;;;;5036962;28;20045;-72
2022/10/20 09:53:34;;;;;;;31.58;28.88;;;10.90;99.90;;;;;;5036613;28;20111;-71
2022/10/20 09:56:01;;;;;;;31.45;28.75;;;10.70;99.90;;;;;;5041436;28;20040;-72
2022/10/20 09:58:30;;;;;;;31.40;28.52;;;10.80;99.90;;;;;;5058193;28;20029;-71
2022/10/20 10:01:10;;;;;;;31.77;28.92;;;10.80;99.90;;;;;;5061927;28;20035;-71
2022/10/20 10:03:43;;;;;;;32.03;29.20;;;10.80;99.90;;;;;;5062622;28;20064;-73
2022/10/20 10:06:41;;;;;;;31.92;28.98;;;10.70;99.90;;;;;;5064343;28;20135;-72
2022/10/20 10:09:25;;;;;;;33.20;30.23;;;10.60;99.90;;;;;;5043546;28;20043;-73
2022/10/20 10:12:09;;;;;;;28.90;26.33;;;10.80;99.90;;;;;;5038358;28;20044;-72
2022/10/20 10:14:36;;;;;;;28.23;25.70;;;10.60;99.90;;;;;;5035299;28;20041;-72
2022/10/20 10:17:03;;;;;;;29.52;26.70;;;10.60;99.90;;;;;;5036037;28;20428;-73
2022/10/20 10:19:32;;;;;;;30.20;27.20;;;10.60;99.90;;;;;;5038352;28;20102;-73
2022/10/20 10:22:01;;;;;;;28.08;25.63;;;10.80;99.90;;;;;;5044205;28;20565;-73
2022/10/20 10:24:38;;;;;;;31.88;29.05;;;10.80;99.90;;;;;;5034930;28;20071;-74
2022/10/20 10:27:22;;;;;;;29.38;26.52;;;11.00;99.90;;;;;;5035610;28;20435;-73
2022/10/20 10:29:49;;;;;;;29.75;27.25;;;11.10;99.90;;;;;;5036994;28;20037;-72
2022/10/20 10:32:26;;;;;;;30.42;27.58;;;11.40;99.90;;;;;;5032259;28;20119;-72
2022/10/20 10:35:27;;;;;;;29.65;27.08;;;11.50;99.90;;;;;;5049572;28;20193;-73
2022/10/20 10:37:55;;;;;;;32.15;29.13;;;11.50;99.90;;;;;;5033984;28;20526;-73
2022/10/20 10:40:33;;;;;;;32.70;29.70;;;11.30;99.90;;;;;;5034007;28;20063;-73
2022/10/20 10:43:35;;;;;;;33.50;30.48;;;11.40;99.90;;;;;;5032669;28;20080;-71
2022/10/20 10:46:19;;;;;;;32.80;29.73;;;11.40;99.90;;;;;;5031861;28;20454;-73
2022/10/20 10:49:14;;;;;;;28.77;26.20;;;11.40;99.90;;;;;;5045499;28;20182;-72
2022/10/20 10:52:02;;;;;;;30.95;28.33;;;11.30;99.90;;;;;;5032715;28;20037;-73
2022/10/20 10:55:08;;;;;;;32.05;28.90;;;11.30;99.90;;;;;;5033161;28;20452;-72
2022/10/20 10:57:53;;;;;;;28.75;26.35;;;11.30;99.90;;;;;;5035498;28;20265;-71
2022/10/20 11:00:39;;;;;;;32.00;29.08;;;11.30;99.90;;;;;;5047984;28;20056;-71
2022/10/20 11:03:20;;;;;;;;;;;11.20;99.90;;;;;;5041325;28;20162;-72
2022/10/20 11:06:16;;;;;;;30.77;28.05;;;11.30;99.90;;;;;;5036261;28;19932;-73
2022/10/20 11:09:00;;;;;;;31.73;28.60;;;11.40;99.90;;;;;;5015357;28;20590;-72
2022/10/20 11:11:44;;;;;;;28.67;25.92;;;11.50;99.90;;;;;;5035917;28;20033;-73
2022/10/20 11:14:37;;;;;;;29.83;27.33;;;11.50;99.90;;;;;;5035577;28;20041;-73
2022/10/20 11:17:50;;;;;;;29.42;27.00;;;11.60;99.90;;;;;;5035247;28;20060;-72
2022/10/20 11:20:35;;;;;;;28.88;26.45;;;11.70;99.90;;;;;;5032097;28;20045;-72
2022/10/20 11:23:20;;;;;;;29.25;26.60;;;11.70;99.90;;;;;;5034740;28;20044;-72
2022/10/20 11:26:12;;;;;;;28.15;25.73;;;11.80;99.90;;;;;;5034700;28;20057;-72
2022/10/20 11:28:45;;;;;;;29.83;27.00;;;11.80;99.90;;;;;;5050356;28;20057;-72
2022/10/20 11:31:39;;;;;;;29.17;26.88;;;11.80;99.90;;;;;;5037113;28;20037;-73
2022/10/20 11:34:17;;;;;;;29.13;26.83;;;11.90;99.90;;;;;;5019334;28;20049;-73
2022/10/20 11:36:49;;;;;;;29.67;27.00;;;12.00;99.90;;;;;;5012221;28;20045;-73
2022/10/20 11:39:29;;;;;;;29.98;27.25;;;12.10;99.90;;;;;;5032322;28;20158;-72
2022/10/20 11:42:04;;;;;;;29.95;27.33;;;12.10;99.90;;;;;;5064000;28;20047;-72
2022/10/20 11:44:39;;;;;;;28.85;26.40;;;12.20;99.90;;;;;;5034312;28;20045;-72
2022/10/20 11:47:13;;;;;;;27.98;25.73;;;12.30;99.90;;;;;;5017373;28;20045;-72
2022/10/20 11:49:40;;;;;;;29.77;26.80;;;12.50;99.90;;;;;;5034199;28;20033;-72
2022/10/20 11:52:07;;;;;;;28.55;25.98;;;12.40;99.90;;;;;;5032864;28;20029;-72
2022/10/20 11:54:34;;;;;;;31.10;28.45;;;12.50;99.90;;;;;;5031620;28;20041;-69
2022/10/20 11:57:41;;;;;;;31.40;28.70;;;12.40;99.90;;;;;;5032939;28;20037;-71
2022/10/20 12:00:14;;;;;;;30.70;28.20;;;12.50;99.90;;;;;;5063563;28;20059;-71
2022/10/20 12:03:21;;;;;;;30.60;28.17;;;12.60;99.90;;;;;;5018721;28;20556;-71
2022/10/20 12:06:33;;;;;;;30.60;27.80;;;12.60;99.90;;;;;;5027616;28;20854;-72
2022/10/20 12:09:24;;;;;;;30.20;28.00;;;12.50;99.90;;;;;;5046843;28;20046;-73
2022/10/20 12:12:05;;;;;;;33.55;30.38;;;12.40;99.90;;;;;;5019955;28;20111;-70
2022/10/20 12:14:42;;;;;;;29.52;27.17;;;12.30;99.90;;;;;;5019306;28;20645;-71
2022/10/20 12:17:30;;;;;;;29.33;27.05;;;12.40;99.90;;;;;;5018484;28;20048;-71
2022/10/20 12:20:19;;;;;;;30.67;28.17;;;12.40;99.90;;;;;;5042688;28;20141;-71
2022/10/20 12:22:54;;;;;;;32.13;29.48;;;12.50;99.90;;;;;;5035852;28;20118;-71
2022/10/20 12:25:35;;;;;;;30.27;27.58;;;12.60;99.90;;;;;;5023254;28;20141;-70
2022/10/20 12:28:21;;;;;;;32.25;29.33;;;12.50;99.90;;;;;;5036266;28;20041;-73
2022/10/20 12:31:03;;;;;;;31.55;28.85;;;12.30;99.90;;;;;;5019380;28;20041;-71
2022/10/20 12:33:39;;;;;;;31.02;28.35;;;12.10;99.90;;;;;;5022974;28;20406;-71
2022/10/20 12:36:18;;;;;;;28.92;26.58;;;12.20;99.90;;;;;;5036350;28;20414;-71
2022/10/20 12:38:51;;;;;;;30.10;27.48;;;12.20;99.90;;;;;;5015760;28;20127;-73
2022/10/20 12:41:32;;;;;;;33.65;30.67;;;12.00;99.90;;;;;;5017901;28;20045;-71
2022/10/20 12:44:03;;;;;;;31.17;28.50;;;11.90;99.90;;;;;;5015250;28;20199;-71
2022/10/20 12:46:32;;;;;;;30.85;28.33;;;11.80;99.90;;;;;;5036736;28;20136;-71
2022/10/20 12:49:06;;;;;;;35.97;32.38;;;11.70;99.90;;;;;;5019652;28;20045;-70
2022/10/20 12:51:50;;;;;;;32.50;29.50;;;11.70;99.90;;;;;;5017008;28;20092;-73
2022/10/20 12:54:38;;;;;;;30.95;27.75;;;11.60;99.90;;;;;;5036684;28;20048;-73
2022/10/20 12:57:30;;;;;;;29.10;26.38;;;11.50;99.90;;;;;;5016484;28;20072;-72
2022/10/20 12:59:57;;;;;;;30.90;28.10;;;11.30;99.90;;;;;;5034779;28;20618;-72
2022/10/20 13:02:24;;;;;;;49.80;33.53;;;11.30;99.90;;;;;;5018208;28;20503;-73
2022/10/20 13:04:56;;;;;;;30.73;27.67;;;11.40;99.90;;;;;;5017750;28;20481;-72